sensor_id;sensor_type;location;lat;lon;timestamp;P1;P2;P0
72509;PMS5003;60532;56.114;40.350;2023-05-16T00:01:47;5.75;4.00;2.00
72509;PMS5003;60532;56.114;40.350;2023-05-16T00:03:48;3.00;3.00;2.75
72509;PMS5003;60532;56.114;40.350;2023-05-16T00:05:48;3.25;3.25;2.00
72509;PMS5003;60532;56.114;40.350;2023-05-16T00:07:49;3.60;3.60;2.80
72509;PMS5003;60532;56.114;40.350;2023-05-16T00:09:50;7.00;7.00;4.00
72509;PMS5003;60532;56.114;40.350;2023-05-16T00:11:50;4.75;4.75;3.50
72509;PMS5003;60532;56.114;40.350;2023-05-16T00:13:51;5.00;4.00;2.50
72509;PMS5003;60532;56.114;40.350;2023-05-16T00:15:52;4.40;3.80;2.00
72509;PMS5003;60532;56.114;40.350;2023-05-16T00:17:54;5.80;4.40;2.80
72509;PMS5003;60532;56.114;40.350;2023-05-16T00:19:57;5.00;5.00;3.00
72509;PMS5003;60532;56.114;40.350;2023-05-16T00:21:59;4.00;4.00;3.20
72509;PMS5003;60532;56.114;40.350;2023-05-16T00:23:59;5.00;4.25;3.00
72509;PMS5003;60532;56.114;40.350;2023-05-16T00:26:00;6.00;6.00;4.25
72509;PMS5003;60532;56.114;40.350;2023-05-16T00:28:01;8.00;7.00;4.00
72509;PMS5003;60532;56.114;40.350;2023-05-16T00:30:02;8.50;8.50;5.00
72509;PMS5003;60532;56.114;40.350;2023-05-16T00:32:02;9.40;8.20;5.00
72509;PMS5003;60532;56.114;40.350;2023-05-16T00:34:03;15.25;13.00;5.00
72509;PMS5003;60532;56.114;40.350;2023-05-16T00:36:03;11.25;11.00;5.75
72509;PMS5003;60532;56.114;40.350;2023-05-16T00:38:04;10.00;7.60;5.00
72509;PMS5003;60532;56.114;40.350;2023-05-16T00:40:05;9.50;9.50;5.00
72509;PMS5003;60532;56.114;40.350;2023-05-16T00:42:06;6.20;6.20;4.40
72509;PMS5003;60532;56.114;40.350;2023-05-16T00:44:07;12.75;9.00;6.00
72509;PMS5003;60532;56.114;40.350;2023-05-16T00:46:07;10.75;7.00;5.00
72509;PMS5003;60532;56.114;40.350;2023-05-16T00:48:08;6.50;5.00;3.00
72509;PMS5003;60532;56.114;40.350;2023-05-16T00:50:08;8.50;6.25;4.00
72509;PMS5003;60532;56.114;40.350;2023-05-16T00:52:09;6.40;6.40;3.60
72509;PMS5003;60532;56.114;40.350;2023-05-16T00:54:10;6.00;5.40;4.00
72509;PMS5003;60532;56.114;40.350;2023-05-16T00:56:11;6.25;6.25;3.25
72509;PMS5003;60532;56.114;40.350;2023-05-16T00:58:11;5.25;5.25;3.00
72509;PMS5003;60532;56.114;40.350;2023-05-16T01:00:12;5.75;5.00;4.00
72509;PMS5003;60532;56.114;40.350;2023-05-16T01:02:14;3.00;3.00;3.00
72509;PMS5003;60532;56.114;40.350;2023-05-16T01:04:15;5.00;5.00;3.00
72509;PMS5003;60532;56.114;40.350;2023-05-16T01:06:16;6.40;5.80;3.00
72509;PMS5003;60532;56.114;40.350;2023-05-16T01:08:16;5.25;5.25;4.00
72509;PMS5003;60532;56.114;40.350;2023-05-16T01:10:17;5.25;5.25;3.00
72509;PMS5003;60532;56.114;40.350;2023-05-16T01:12:55;7.75;7.75;4.75
72509;PMS5003;60532;56.114;40.350;2023-05-16T01:27:49;8.40;7.00;4.60
72509;PMS5003;60532;56.114;40.350;2023-05-16T01:29:55;8.40;8.00;4.00
72509;PMS5003;60532;56.114;40.350;2023-05-16T01:31:55;7.60;7.60;4.00
72509;PMS5003;60532;56.114;40.350;2023-05-16T01:33:57;5.80;5.80;4.00
72509;PMS5003;60532;56.114;40.350;2023-05-16T01:35:59;9.00;7.00;4.00
72509;PMS5003;60532;56.114;40.350;2023-05-16T01:40:11;6.20;6.00;4.00
72509;PMS5003;60532;56.114;40.350;2023-05-16T01:42:15;6.00;6.00;3.80
72509;PMS5003;60532;56.114;40.350;2023-05-16T01:44:21;4.00;4.00;2.40
72509;PMS5003;60532;56.114;40.350;2023-05-16T01:46:26;5.60;5.60;4.60
72509;PMS5003;60532;56.114;40.350;2023-05-16T01:48:31;7.00;6.40;3.20
72509;PMS5003;60532;56.114;40.350;2023-05-16T01:50:35;6.80;6.80;4.80
72509;PMS5003;60532;56.114;40.350;2023-05-16T01:54:57;8.20;7.00;4.00
72509;PMS5003;60532;56.114;40.350;2023-05-16T01:56:58;8.60;6.20;3.20
72509;PMS5003;60532;56.114;40.350;2023-05-16T01:59:00;5.20;5.20;3.60
72509;PMS5003;60532;56.114;40.350;2023-05-16T02:01:02;8.80;6.60;3.40
72509;PMS5003;60532;56.114;40.350;2023-05-16T02:03:03;4.20;3.20;1.00
72509;PMS5003;60532;56.114;40.350;2023-05-16T02:05:03;5.00;5.00;3.00
72509;PMS5003;60532;56.114;40.350;2023-05-16T02:07:04;7.50;5.50;4.00
72509;PMS5003;60532;56.114;40.350;2023-05-16T02:09:04;5.50;5.50;4.00
72509;PMS5003;60532;56.114;40.350;2023-05-16T02:11:05;9.25;6.75;3.75
72509;PMS5003;60532;56.114;40.350;2023-05-16T02:13:06;6.00;6.00;4.25
72509;PMS5003;60532;56.114;40.350;2023-05-16T02:15:06;7.75;6.50;4.00
72509;PMS5003;60532;56.114;40.350;2023-05-16T02:17:07;7.00;7.00;4.00
72509;PMS5003;60532;56.114;40.350;2023-05-16T02:19:07;7.75;6.00;3.50
72509;PMS5003;60532;56.114;40.350;2023-05-16T02:21:08;9.00;9.00;4.00
72509;PMS5003;60532;56.114;40.350;2023-05-16T02:23:08;7.00;7.00;4.00
72509;PMS5003;60532;56.114;40.350;2023-05-16T02:25:09;6.25;6.25;4.00
72509;PMS5003;60532;56.114;40.350;2023-05-16T02:27:09;7.00;7.00;4.00
72509;PMS5003;60532;56.114;40.350;2023-05-16T02:29:10;7.25;7.25;5.00
72509;PMS5003;60532;56.114;40.350;2023-05-16T02:31:10;12.00;9.25;5.00
72509;PMS5003;60532;56.114;40.350;2023-05-16T02:33:11;6.00;6.00;2.00
72509;PMS5003;60532;56.114;40.350;2023-05-16T02:35:11;7.50;6.00;3.50
72509;PMS5003;60532;56.114;40.350;2023-05-16T02:37:12;9.25;6.50;5.00
72509;PMS5003;60532;56.114;40.350;2023-05-16T02:39:12;8.50;5.50;3.75
72509;PMS5003;60532;56.114;40.350;2023-05-16T02:41:13;6.00;6.00;3.80
72509;PMS5003;60532;56.114;40.350;2023-05-16T02:43:14;8.50;6.75;4.50
72509;PMS5003;60532;56.114;40.350;2023-05-16T02:45:15;4.00;4.00;2.75
72509;PMS5003;60532;56.114;40.350;2023-05-16T02:47:15;4.25;2.75;1.75
72509;PMS5003;60532;56.114;40.350;2023-05-16T02:49:16;6.75;6.00;4.00
72509;PMS5003;60532;56.114;40.350;2023-05-16T02:51:16;4.75;4.50;3.00
72509;PMS5003;60532;56.114;40.350;2023-05-16T02:53:17;6.80;6.20;4.00
72509;PMS5003;60532;56.114;40.350;2023-05-16T02:55:17;9.25;8.00;4.75
72509;PMS5003;60532;56.114;40.350;2023-05-16T02:57:18;6.50;6.50;4.25
72509;PMS5003;60532;56.114;40.350;2023-05-16T02:59:18;9.25;9.00;5.25
72509;PMS5003;60532;56.114;40.350;2023-05-16T03:01:19;8.80;8.80;5.00
72509;PMS5003;60532;56.114;40.350;2023-05-16T03:03:20;8.50;8.50;5.25
72509;PMS5003;60532;56.114;40.350;2023-05-16T03:05:20;5.00;4.25;2.00
72509;PMS5003;60532;56.114;40.350;2023-05-16T03:07:21;10.50;8.75;4.75
72509;PMS5003;60532;56.114;40.350;2023-05-16T03:09:21;10.00;9.00;4.00
72509;PMS5003;60532;56.114;40.350;2023-05-16T03:11:22;9.00;9.00;5.00
72509;PMS5003;60532;56.114;40.350;2023-05-16T03:13:24;14.80;14.60;7.40
72509;PMS5003;60532;56.114;40.350;2023-05-16T03:15:24;14.00;11.50;6.50
72509;PMS5003;60532;56.114;40.350;2023-05-16T03:17:25;16.60;13.80;8.00
72509;PMS5003;60532;56.114;40.350;2023-05-16T03:19:26;9.25;9.25;6.25
72509;PMS5003;60532;56.114;40.350;2023-05-16T03:21:26;10.50;9.00;6.00
72509;PMS5003;60532;56.114;40.350;2023-05-16T03:23:27;11.00;11.00;6.00
72509;PMS5003;60532;56.114;40.350;2023-05-16T03:25:27;9.00;8.75;5.25
72509;PMS5003;60532;56.114;40.350;2023-05-16T03:27:28;11.00;10.00;5.75
72509;PMS5003;60532;56.114;40.350;2023-05-16T03:29:28;9.00;9.00;5.00
72509;PMS5003;60532;56.114;40.350;2023-05-16T03:31:29;10.00;9.00;5.50
72509;PMS5003;60532;56.114;40.350;2023-05-16T03:33:31;11.50;10.25;6.25
72509;PMS5003;60532;56.114;40.350;2023-05-16T03:35:31;10.67;10.67;6.33
72509;PMS5003;60532;56.114;40.350;2023-05-16T03:37:32;12.00;10.75;7.00
72509;PMS5003;60532;56.114;40.350;2023-05-16T03:39:32;14.67;12.00;7.00
72509;PMS5003;60532;56.114;40.350;2023-05-16T03:41:33;13.67;13.00;8.00
72509;PMS5003;60532;56.114;40.350;2023-05-16T03:43:34;12.00;12.00;6.25
72509;PMS5003;60532;56.114;40.350;2023-05-16T03:45:34;18.00;16.00;9.00
72509;PMS5003;60532;56.114;40.350;2023-05-16T03:47:35;18.67;16.00;9.00
72509;PMS5003;60532;56.114;40.350;2023-05-16T03:49:35;7.67;2.00;0.00
72509;PMS5003;60532;56.114;40.350;2023-05-16T03:51:36;21.75;16.25;9.00
72509;PMS5003;60532;56.114;40.350;2023-05-16T03:53:37;13.00;13.00;7.67
72509;PMS5003;60532;56.114;40.350;2023-05-16T03:55:37;16.67;13.67;7.67
72509;PMS5003;60532;56.114;40.350;2023-05-16T03:57:38;12.00;12.00;6.67
72509;PMS5003;60532;56.114;40.350;2023-05-16T03:59:38;12.67;10.00;7.00
72509;PMS5003;60532;56.114;40.350;2023-05-16T04:01:39;10.67;10.33;7.00
72509;PMS5003;60532;56.114;40.350;2023-05-16T04:03:39;8.00;8.00;4.33
72509;PMS5003;60532;56.114;40.350;2023-05-16T04:05:40;11.00;9.67;6.67
72509;PMS5003;60532;56.114;40.350;2023-05-16T04:07:40;8.67;8.67;6.00
72509;PMS5003;60532;56.114;40.350;2023-05-16T04:09:41;7.67;6.00;4.33
72509;PMS5003;60532;56.114;40.350;2023-05-16T04:11:41;6.00;6.00;5.00
72509;PMS5003;60532;56.114;40.350;2023-05-16T04:13:42;5.75;5.75;4.00
72509;PMS5003;60532;56.114;40.350;2023-05-16T04:15:42;8.00;6.67;4.00
72509;PMS5003;60532;56.114;40.350;2023-05-16T04:17:43;6.33;6.00;4.67
72509;PMS5003;60532;56.114;40.350;2023-05-16T04:19:44;5.33;5.33;4.00
72509;PMS5003;60532;56.114;40.350;2023-05-16T04:21:44;6.67;6.67;4.67
72509;PMS5003;60532;56.114;40.350;2023-05-16T04:23:45;5.00;5.00;3.00
72509;PMS5003;60532;56.114;40.350;2023-05-16T04:25:45;8.33;6.00;4.00
72509;PMS5003;60532;56.114;40.350;2023-05-16T04:27:46;6.33;6.33;4.00
72509;PMS5003;60532;56.114;40.350;2023-05-16T04:29:46;5.00;5.00;3.00
72509;PMS5003;60532;56.114;40.350;2023-05-16T04:31:47;4.33;4.00;3.00
72509;PMS5003;60532;56.114;40.350;2023-05-16T04:33:48;4.67;4.00;3.00
72509;PMS5003;60532;56.114;40.350;2023-05-16T04:35:48;5.50;5.00;3.00
72509;PMS5003;60532;56.114;40.350;2023-05-16T04:37:49;5.00;5.00;3.00
72509;PMS5003;60532;56.114;40.350;2023-05-16T04:39:49;5.00;5.00;3.00
72509;PMS5003;60532;56.114;40.350;2023-05-16T04:41:50;7.50;4.00;3.00
72509;PMS5003;60532;56.114;40.350;2023-05-16T04:43:51;6.67;4.00;3.00
72509;PMS5003;60532;56.114;40.350;2023-05-16T04:45:52;6.00;4.75;3.50
72509;PMS5003;60532;56.114;40.350;2023-05-16T04:47:53;4.00;4.00;2.33
72509;PMS5003;60532;56.114;40.350;2023-05-16T04:49:53;4.00;4.00;3.00
72509;PMS5003;60532;56.114;40.350;2023-05-16T04:51:54;4.00;4.00;3.00
72509;PMS5003;60532;56.114;40.350;2023-05-16T04:53:54;3.00;2.33;2.00
72509;PMS5003;60532;56.114;40.350;2023-05-16T04:55:55;3.67;2.00;1.67
72509;PMS5003;60532;56.114;40.350;2023-05-16T04:57:55;3.33;3.33;2.00
72509;PMS5003;60532;56.114;40.350;2023-05-16T04:59:56;5.00;4.00;3.00
72509;PMS5003;60532;56.114;40.350;2023-05-16T05:01:56;3.33;3.33;3.00
72509;PMS5003;60532;56.114;40.350;2023-05-16T05:03:57;2.67;2.67;2.00
72509;PMS5003;60532;56.114;40.350;2023-05-16T05:05:57;3.00;1.00;1.00
72509;PMS5003;60532;56.114;40.350;2023-05-16T05:07:58;3.33;3.33;2.00
72509;PMS5003;60532;56.114;40.350;2023-05-16T05:10:00;2.50;2.50;2.00
72509;PMS5003;60532;56.114;40.350;2023-05-16T05:12:01;3.33;3.33;2.00
72509;PMS5003;60532;56.114;40.350;2023-05-16T05:14:01;2.00;2.00;1.00
72509;PMS5003;60532;56.114;40.350;2023-05-16T05:16:02;3.00;3.00;2.00
72509;PMS5003;60532;56.114;40.350;2023-05-16T05:18:04;3.50;3.50;2.00
72509;PMS5003;60532;56.114;40.350;2023-05-16T05:20:04;3.00;2.00;1.00
72509;PMS5003;60532;56.114;40.350;2023-05-16T05:22:09;3.00;3.00;1.00
72509;PMS5003;60532;56.114;40.350;2023-05-16T05:24:10;2.00;2.00;1.00
72509;PMS5003;60532;56.114;40.350;2023-05-16T05:26:10;3.67;2.00;1.67
72509;PMS5003;60532;56.114;40.350;2023-05-16T05:28:11;4.75;3.00;2.00
72509;PMS5003;60532;56.114;40.350;2023-05-16T05:30:12;4.00;4.00;3.00
72509;PMS5003;60532;56.114;40.350;2023-05-16T05:32:12;3.00;3.00;2.00
72509;PMS5003;60532;56.114;40.350;2023-05-16T05:34:13;2.67;2.67;1.67
72509;PMS5003;60532;56.114;40.350;2023-05-16T05:36:15;3.33;3.33;2.00
72509;PMS5003;60532;56.114;40.350;2023-05-16T05:38:15;3.50;3.00;2.00
72509;PMS5003;60532;56.114;40.350;2023-05-16T05:40:16;3.33;3.33;2.67
72509;PMS5003;60532;56.114;40.350;2023-05-16T05:42:16;2.00;1.33;0.33
72509;PMS5003;60532;56.114;40.350;2023-05-16T05:44:17;2.67;2.67;1.67
72509;PMS5003;60532;56.114;40.350;2023-05-16T05:46:17;2.33;2.33;2.00
72509;PMS5003;60532;56.114;40.350;2023-05-16T05:48:18;3.00;3.00;1.67
72509;PMS5003;60532;56.114;40.350;2023-05-16T05:50:18;2.00;2.00;1.33
72509;PMS5003;60532;56.114;40.350;2023-05-16T05:52:19;3.67;3.67;2.33
72509;PMS5003;60532;56.114;40.350;2023-05-16T05:54:19;5.33;5.00;3.00
72509;PMS5003;60532;56.114;40.350;2023-05-16T05:56:20;2.67;2.67;2.00
72509;PMS5003;60532;56.114;40.350;2023-05-16T05:58:21;3.00;3.00;1.00
72509;PMS5003;60532;56.114;40.350;2023-05-16T06:00:21;3.00;3.00;2.00
72509;PMS5003;60532;56.114;40.350;2023-05-16T06:02:22;4.67;3.00;2.00
72509;PMS5003;60532;56.114;40.350;2023-05-16T06:04:22;1.00;1.00;1.00
72509;PMS5003;60532;56.114;40.350;2023-05-16T06:06:23;1.00;1.00;0.67
72509;PMS5003;60532;56.114;40.350;2023-05-16T06:08:23;2.00;2.00;1.00
72509;PMS5003;60532;56.114;40.350;2023-05-16T06:10:24;1.33;1.33;1.00
72509;PMS5003;60532;56.114;40.350;2023-05-16T06:12:24;1.00;1.00;1.00
72509;PMS5003;60532;56.114;40.350;2023-05-16T06:14:25;1.67;1.67;1.00
72509;PMS5003;60532;56.114;40.350;2023-05-16T06:16:25;2.00;2.00;1.00
72509;PMS5003;60532;56.114;40.350;2023-05-16T06:18:26;2.00;2.00;1.00
72509;PMS5003;60532;56.114;40.350;2023-05-16T06:20:26;3.00;2.00;1.00
72509;PMS5003;60532;56.114;40.350;2023-05-16T06:22:27;3.00;3.00;2.00
72509;PMS5003;60532;56.114;40.350;2023-05-16T06:24:28;1.33;1.33;1.00
72509;PMS5003;60532;56.114;40.350;2023-05-16T06:26:29;1.00;1.00;0.75
72509;PMS5003;60532;56.114;40.350;2023-05-16T06:28:29;2.33;2.33;0.33
72509;PMS5003;60532;56.114;40.350;2023-05-16T06:30:30;1.00;1.00;0.00
72509;PMS5003;60532;56.114;40.350;2023-05-16T06:32:31;1.00;1.00;0.50
72509;PMS5003;60532;56.114;40.350;2023-05-16T06:34:31;1.00;1.00;1.00
72509;PMS5003;60532;56.114;40.350;2023-05-16T06:36:32;2.67;2.00;1.00
72509;PMS5003;60532;56.114;40.350;2023-05-16T06:38:33;1.00;1.00;1.00
72509;PMS5003;60532;56.114;40.350;2023-05-16T06:40:33;1.33;1.33;1.00
72509;PMS5003;60532;56.114;40.350;2023-05-16T06:42:33;1.00;1.00;0.00
72509;PMS5003;60532;56.114;40.350;2023-05-16T06:44:34;0.67;0.67;0.00
72509;PMS5003;60532;56.114;40.350;2023-05-16T06:46:35;1.00;1.00;0.00
72509;PMS5003;60532;56.114;40.350;2023-05-16T06:48:35;1.00;1.00;0.00
72509;PMS5003;60532;56.114;40.350;2023-05-16T06:50:36;3.00;2.00;1.33
72509;PMS5003;60532;56.114;40.350;2023-05-16T06:52:36;1.33;1.33;0.00
72509;PMS5003;60532;56.114;40.350;2023-05-16T06:54:37;1.00;1.00;1.00
72509;PMS5003;60532;56.114;40.350;2023-05-16T06:56:37;2.00;2.00;0.67
72509;PMS5003;60532;56.114;40.350;2023-05-16T06:58:38;2.00;2.00;1.00
72509;PMS5003;60532;56.114;40.350;2023-05-16T07:00:38;1.33;1.33;1.00
72509;PMS5003;60532;56.114;40.350;2023-05-16T07:02:39;2.33;2.33;1.00
72509;PMS5003;60532;56.114;40.350;2023-05-16T07:04:39;2.00;2.00;1.00
72509;PMS5003;60532;56.114;40.350;2023-05-16T07:06:40;1.33;1.33;1.00
72509;PMS5003;60532;56.114;40.350;2023-05-16T07:08:40;1.33;1.00;1.00
72509;PMS5003;60532;56.114;40.350;2023-05-16T07:10:41;4.00;2.00;1.00
72509;PMS5003;60532;56.114;40.350;2023-05-16T07:12:41;2.00;2.00;2.00
72509;PMS5003;60532;56.114;40.350;2023-05-16T07:14:42;4.00;4.00;2.00
72509;PMS5003;60532;56.114;40.350;2023-05-16T07:16:42;2.00;2.00;1.00
72509;PMS5003;60532;56.114;40.350;2023-05-16T07:18:43;2.00;2.00;1.00
72509;PMS5003;60532;56.114;40.350;2023-05-16T07:20:44;2.00;2.00;1.00
72509;PMS5003;60532;56.114;40.350;2023-05-16T07:22:45;3.00;3.00;1.75
72509;PMS5003;60532;56.114;40.350;2023-05-16T07:24:45;3.00;3.00;1.67
72509;PMS5003;60532;56.114;40.350;2023-05-16T07:26:46;1.00;1.00;0.33
72509;PMS5003;60532;56.114;40.350;2023-05-16T07:28:46;2.33;2.00;1.00
72509;PMS5003;60532;56.114;40.350;2023-05-16T07:30:46;1.67;1.67;0.67
72509;PMS5003;60532;56.114;40.350;2023-05-16T07:32:48;0.00;0.00;0.00
72509;PMS5003;60532;56.114;40.350;2023-05-16T07:34:48;2.00;2.00;1.00
72509;PMS5003;60532;56.114;40.350;2023-05-16T07:36:49;2.00;1.33;1.00
72509;PMS5003;60532;56.114;40.350;2023-05-16T07:38:49;2.00;2.00;1.33
72509;PMS5003;60532;56.114;40.350;2023-05-16T07:40:50;1.67;1.67;0.67
72509;PMS5003;60532;56.114;40.350;2023-05-16T07:42:50;1.67;1.67;0.67
72509;PMS5003;60532;56.114;40.350;2023-05-16T07:44:51;1.00;1.00;1.00
72509;PMS5003;60532;56.114;40.350;2023-05-16T07:46:51;2.67;2.00;1.00
72509;PMS5003;60532;56.114;40.350;2023-05-16T07:48:52;1.00;1.00;0.33
72509;PMS5003;60532;56.114;40.350;2023-05-16T07:50:52;2.00;2.00;1.00
72509;PMS5003;60532;56.114;40.350;2023-05-16T07:52:53;4.00;2.80;1.20
72509;PMS5003;60532;56.114;40.350;2023-05-16T07:54:54;2.50;1.75;0.00
72509;PMS5003;60532;56.114;40.350;2023-05-16T07:56:55;2.00;2.00;1.20
72509;PMS5003;60532;56.114;40.350;2023-05-16T07:58:56;2.40;2.40;1.40
72509;PMS5003;60532;56.114;40.350;2023-05-16T08:00:56;2.00;2.00;1.50
72509;PMS5003;60532;56.114;40.350;2023-05-16T08:02:57;4.50;2.00;1.00
72509;PMS5003;60532;56.114;40.350;2023-05-16T08:04:57;3.33;2.33;1.00
72509;PMS5003;60532;56.114;40.350;2023-05-16T08:06:57;3.33;2.67;1.00
72509;PMS5003;60532;56.114;40.350;2023-05-16T08:08:58;0.33;0.33;0.33
72509;PMS5003;60532;56.114;40.350;2023-05-16T08:10:59;3.00;3.00;2.00
72509;PMS5003;60532;56.114;40.350;2023-05-16T08:12:59;3.00;3.00;2.00
72509;PMS5003;60532;56.114;40.350;2023-05-16T08:15:00;3.00;3.00;2.00
72509;PMS5003;60532;56.114;40.350;2023-05-16T08:17:00;3.00;3.00;2.00
72509;PMS5003;60532;56.114;40.350;2023-05-16T08:19:01;3.00;3.00;2.00
72509;PMS5003;60532;56.114;40.350;2023-05-16T08:21:01;2.00;2.00;1.00
72509;PMS5003;60532;56.114;40.350;2023-05-16T08:23:02;1.67;1.67;1.00
72509;PMS5003;60532;56.114;40.350;2023-05-16T08:25:03;4.67;2.67;1.67
72509;PMS5003;60532;56.114;40.350;2023-05-16T08:27:03;1.33;1.00;0.00
72509;PMS5003;60532;56.114;40.350;2023-05-16T08:29:04;1.33;1.00;0.00
72509;PMS5003;60532;56.114;40.350;2023-05-16T08:31:05;4.00;4.00;1.00
72509;PMS5003;60532;56.114;40.350;2023-05-16T08:33:05;3.33;3.00;1.00
72509;PMS5003;60532;56.114;40.350;2023-05-16T08:35:06;2.67;2.67;1.33
72509;PMS5003;60532;56.114;40.350;2023-05-16T08:37:06;1.50;1.50;1.00
72509;PMS5003;60532;56.114;40.350;2023-05-16T08:39:07;3.00;2.00;1.00
72509;PMS5003;60532;56.114;40.350;2023-05-16T08:41:10;3.25;2.25;1.00
72509;PMS5003;60532;56.114;40.350;2023-05-16T08:43:11;1.67;1.67;0.00
72509;PMS5003;60532;56.114;40.350;2023-05-16T08:45:11;3.67;3.33;1.00
72509;PMS5003;60532;56.114;40.350;2023-05-16T08:47:17;0.33;0.00;0.00
72509;PMS5003;60532;56.114;40.350;2023-05-16T08:49:19;2.75;2.75;0.75
72509;PMS5003;60532;56.114;40.350;2023-05-16T08:51:20;3.00;3.00;1.50
72509;PMS5003;60532;56.114;40.350;2023-05-16T08:53:21;3.50;2.50;1.25
72509;PMS5003;60532;56.114;40.350;2023-05-16T08:55:22;3.00;3.00;1.00
72509;PMS5003;60532;56.114;40.350;2023-05-16T08:57:24;3.00;3.00;1.25
72509;PMS5003;60532;56.114;40.350;2023-05-16T08:59:25;1.00;1.00;0.75
72509;PMS5003;60532;56.114;40.350;2023-05-16T09:01:26;4.00;2.00;2.00
72509;PMS5003;60532;56.114;40.350;2023-05-16T09:03:27;3.00;2.33;1.00
72509;PMS5003;60532;56.114;40.350;2023-05-16T09:05:28;4.00;2.75;1.00
72509;PMS5003;60532;56.114;40.350;2023-05-16T09:07:29;2.75;2.00;1.25
72509;PMS5003;60532;56.114;40.350;2023-05-16T09:09:29;2.33;2.33;1.00
72509;PMS5003;60532;56.114;40.350;2023-05-16T09:11:30;3.33;2.33;1.33
72509;PMS5003;60532;56.114;40.350;2023-05-16T09:13:30;3.00;3.00;1.00
72509;PMS5003;60532;56.114;40.350;2023-05-16T09:15:31;4.00;4.00;2.00
72509;PMS5003;60532;56.114;40.350;2023-05-16T09:17:36;1.50;1.50;0.75
72509;PMS5003;60532;56.114;40.350;2023-05-16T09:19:40;4.75;1.75;0.75
72509;PMS5003;60532;56.114;40.350;2023-05-16T09:21:41;2.25;2.25;1.25
72509;PMS5003;60532;56.114;40.350;2023-05-16T09:23:41;2.33;2.00;1.00
72509;PMS5003;60532;56.114;40.350;2023-05-16T09:25:43;3.00;3.00;1.00
72509;PMS5003;60532;56.114;40.350;2023-05-16T09:27:47;3.67;2.33;1.00
72509;PMS5003;60532;56.114;40.350;2023-05-16T09:29:49;2.75;2.75;1.00
72509;PMS5003;60532;56.114;40.350;2023-05-16T09:31:50;1.50;1.50;1.00
72509;PMS5003;60532;56.114;40.350;2023-05-16T09:33:51;3.00;3.00;2.00
72509;PMS5003;60532;56.114;40.350;2023-05-16T09:35:58;4.25;3.25;1.75
72509;PMS5003;60532;56.114;40.350;2023-05-16T09:37:59;2.75;2.75;1.00
72509;PMS5003;60532;56.114;40.350;2023-05-16T09:40:00;4.00;2.67;2.00
72509;PMS5003;60532;56.114;40.350;2023-05-16T09:42:00;4.67;2.67;2.00
72509;PMS5003;60532;56.114;40.350;2023-05-16T09:44:04;2.00;2.00;1.33
72509;PMS5003;60532;56.114;40.350;2023-05-16T09:46:05;2.50;1.00;0.00
72509;PMS5003;60532;56.114;40.350;2023-05-16T09:48:07;3.00;3.00;2.00
72509;PMS5003;60532;56.114;40.350;2023-05-16T09:50:08;2.50;2.50;1.75
72509;PMS5003;60532;56.114;40.350;2023-05-16T09:52:08;3.67;3.67;1.33
72509;PMS5003;60532;56.114;40.350;2023-05-16T09:54:09;3.50;3.00;1.00
72509;PMS5003;60532;56.114;40.350;2023-05-16T09:56:10;3.00;2.00;1.00
72509;PMS5003;60532;56.114;40.350;2023-05-16T09:58:11;2.00;2.00;1.50
72509;PMS5003;60532;56.114;40.350;2023-05-16T10:00:16;2.00;2.00;1.00
72509;PMS5003;60532;56.114;40.350;2023-05-16T10:02:16;4.00;2.25;2.00
72509;PMS5003;60532;56.114;40.350;2023-05-16T10:04:18;3.25;2.00;1.00
72509;PMS5003;60532;56.114;40.350;2023-05-16T10:06:18;1.33;1.33;1.00
72509;PMS5003;60532;56.114;40.350;2023-05-16T10:08:20;2.00;2.00;2.00
72509;PMS5003;60532;56.114;40.350;2023-05-16T10:10:21;2.50;2.50;1.00
72509;PMS5003;60532;56.114;40.350;2023-05-16T10:12:22;2.00;2.00;1.25
72509;PMS5003;60532;56.114;40.350;2023-05-16T10:14:27;4.00;3.00;1.75
72509;PMS5003;60532;56.114;40.350;2023-05-16T10:16:27;3.00;3.00;2.00
72509;PMS5003;60532;56.114;40.350;2023-05-16T10:18:29;3.25;3.25;1.25
72509;PMS5003;60532;56.114;40.350;2023-05-16T10:20:30;3.50;2.50;1.50
72509;PMS5003;60532;56.114;40.350;2023-05-16T10:22:34;2.67;2.00;1.00
72509;PMS5003;60532;56.114;40.350;2023-05-16T10:26:53;2.50;2.50;1.25
72509;PMS5003;60532;56.114;40.350;2023-05-16T10:28:54;5.67;2.33;1.00
72509;PMS5003;60532;56.114;40.350;2023-05-16T10:30:55;3.25;3.25;1.25
72509;PMS5003;60532;56.114;40.350;2023-05-16T10:32:56;4.00;4.00;2.25
72509;PMS5003;60532;56.114;40.350;2023-05-16T10:34:58;4.50;3.00;2.25
72509;PMS5003;60532;56.114;40.350;2023-05-16T10:37:00;3.50;2.75;1.00
72509;PMS5003;60532;56.114;40.350;2023-05-16T10:39:01;3.00;3.00;1.00
72509;PMS5003;60532;56.114;40.350;2023-05-16T10:41:03;5.50;4.00;2.00
72509;PMS5003;60532;56.114;40.350;2023-05-16T10:43:05;3.00;2.75;1.75
72509;PMS5003;60532;56.114;40.350;2023-05-16T10:45:23;4.00;3.00;2.00
72509;PMS5003;60532;56.114;40.350;2023-05-16T10:47:24;2.00;2.00;1.25
72509;PMS5003;60532;56.114;40.350;2023-05-16T10:49:25;2.75;2.75;1.00
72509;PMS5003;60532;56.114;40.350;2023-05-16T10:51:33;2.00;2.00;1.00
72509;PMS5003;60532;56.114;40.350;2023-05-16T10:53:34;3.75;3.75;2.50
72509;PMS5003;60532;56.114;40.350;2023-05-16T10:55:37;2.50;2.50;1.00
72509;PMS5003;60532;56.114;40.350;2023-05-16T10:57:38;3.75;3.75;2.00
72509;PMS5003;60532;56.114;40.350;2023-05-16T10:59:39;4.00;4.00;1.33
72509;PMS5003;60532;56.114;40.350;2023-05-16T11:01:40;2.25;2.25;1.75
72509;PMS5003;60532;56.114;40.350;2023-05-16T11:05:59;2.00;2.00;1.25
72509;PMS5003;60532;56.114;40.350;2023-05-16T11:08:06;2.50;2.50;1.00
72509;PMS5003;60532;56.114;40.350;2023-05-16T11:10:07;1.75;1.75;1.00
72509;PMS5003;60532;56.114;40.350;2023-05-16T11:12:08;3.00;3.00;2.00
72509;PMS5003;60532;56.114;40.350;2023-05-16T11:14:14;2.75;2.75;1.00
72509;PMS5003;60532;56.114;40.350;2023-05-16T11:16:26;3.00;3.00;2.00
72509;PMS5003;60532;56.114;40.350;2023-05-16T11:18:31;6.75;3.25;2.50
72509;PMS5003;60532;56.114;40.350;2023-05-16T11:20:38;4.00;3.00;2.00
72509;PMS5003;60532;56.114;40.350;2023-05-16T11:22:39;4.00;4.00;2.25
72509;PMS5003;60532;56.114;40.350;2023-05-16T11:24:49;3.00;3.00;0.50
72509;PMS5003;60532;56.114;40.350;2023-05-16T11:26:50;2.75;2.75;1.00
72509;PMS5003;60532;56.114;40.350;2023-05-16T11:28:52;4.75;3.00;1.50
72509;PMS5003;60532;56.114;40.350;2023-05-16T11:30:54;4.00;4.00;2.00
72509;PMS5003;60532;56.114;40.350;2023-05-16T11:32:56;2.00;2.00;1.75
72509;PMS5003;60532;56.114;40.350;2023-05-16T11:34:57;3.33;3.33;2.00
72509;PMS5003;60532;56.114;40.350;2023-05-16T11:36:57;4.33;4.33;1.33
72509;PMS5003;60532;56.114;40.350;2023-05-16T11:39:04;7.00;4.00;2.00
72509;PMS5003;60532;56.114;40.350;2023-05-16T11:41:05;2.25;1.00;0.00
72509;PMS5003;60532;56.114;40.350;2023-05-16T11:43:06;4.00;3.00;2.00
72509;PMS5003;60532;56.114;40.350;2023-05-16T11:45:07;2.00;2.00;1.00
72509;PMS5003;60532;56.114;40.350;2023-05-16T11:47:07;2.75;2.75;1.00
72509;PMS5003;60532;56.114;40.350;2023-05-16T11:49:08;3.67;2.00;1.67
72509;PMS5003;60532;56.114;40.350;2023-05-16T11:51:09;3.00;3.00;2.00
72509;PMS5003;60532;56.114;40.350;2023-05-16T11:53:09;3.00;3.00;1.75
72509;PMS5003;60532;56.114;40.350;2023-05-16T11:55:10;3.50;2.00;1.00
72509;PMS5003;60532;56.114;40.350;2023-05-16T11:57:12;5.00;4.67;2.33
72509;PMS5003;60532;56.114;40.350;2023-05-16T11:59:12;2.67;2.67;2.00
72509;PMS5003;60532;56.114;40.350;2023-05-16T12:01:13;2.00;2.00;1.75